Time;durP1;ratioP1;P1;durP2;ratioP2;P2;SDS_P1;SDS_P2;PMS_P1;PMS_P2;Temp;Humidity;BMP_temperature;BMP_pressure;BME280_temperature;BME280_humidity;BME280_pressure;Samples;Min_cycle;Max_cycle;Signal;HPM_P1;HPM_P2
2022/01/22 00:00:38;;;;;;;7.30;1.10;;;24.10;99.90;;;;;;4973533;28;20211;-65
2022/01/22 00:03:06;;;;;;;5.53;1.10;;;25.30;99.90;;;;;;4973411;28;20211;-65
2022/01/22 00:05:34;;;;;;;7.00;1.60;;;25.10;99.90;;;;;;4973286;28;20233;-65
2022/01/22 00:08:02;;;;;;;4.63;1.07;;;24.80;99.90;;;;;;4973538;28;20267;-65
2022/01/22 00:10:29;;;;;;;6.10;1.47;;;24.60;99.90;;;;;;4973626;28;20182;-66
2022/01/22 00:15:29;;;;;;;7.07;1.30;;;24.30;99.90;;;;;;4973238;28;20191;-65
2022/01/22 00:17:58;;;;;;;9.17;1.17;;;24.00;99.90;;;;;;4973540;28;20234;-65
2022/01/22 00:20:29;;;;;;;5.50;0.97;;;24.00;99.90;;;;;;4973944;28;20195;-65
2022/01/22 00:22:57;;;;;;;7.97;1.50;;;24.20;99.90;;;;;;4976956;28;20179;-65
2022/01/22 00:25:25;;;;;;;9.70;1.40;;;24.40;99.90;;;;;;4976333;28;20263;-65
2022/01/22 00:27:53;;;;;;;4.00;1.10;;;24.40;99.90;;;;;;4976670;28;20186;-65
2022/01/22 00:30:23;;;;;;;5.00;1.00;;;24.80;99.90;;;;;;4976554;28;20179;-65
2022/01/22 00:32:51;;;;;;;5.33;0.87;;;25.70;99.90;;;;;;4976664;28;20262;-65
2022/01/22 00:35:20;;;;;;;5.57;0.73;;;26.40;99.90;;;;;;4975213;28;20657;-65
2022/01/22 00:37:49;;;;;;;5.47;1.10;;;27.30;99.90;;;;;;4976616;28;20233;-65
2022/01/22 00:40:18;;;;;;;2.77;1.07;;;27.90;99.90;;;;;;4976439;28;20230;-65
2022/01/22 00:42:48;;;;;;;4.07;0.83;;;27.90;99.90;;;;;;4856670;28;3488612;-65
2022/01/22 00:45:17;;;;;;;3.27;0.83;;;27.80;99.90;;;;;;4977390;28;20277;-65
2022/01/22 00:47:45;;;;;;;4.07;0.87;;;27.40;99.90;;;;;;4977762;28;20187;-65
2022/01/22 00:50:14;;;;;;;3.70;1.10;;;27.60;99.90;;;;;;4977488;28;20694;-65
2022/01/22 00:52:43;;;;;;;4.50;1.10;;;27.50;99.90;;;;;;4977379;28;20659;-65
2022/01/22 00:55:11;;;;;;;5.67;0.70;;;27.80;99.90;;;;;;4977301;28;20183;-65
2022/01/22 00:57:39;;;;;;;5.23;1.03;;;27.90;99.90;;;;;;4977319;28;20262;-65
2022/01/22 01:00:10;;;;;;;6.07;1.17;;;28.10;99.90;;;;;;4977494;28;20221;-65
2022/01/22 01:02:37;;;;;;;2.77;0.80;;;28.60;99.90;;;;;;4977170;28;20168;-64
2022/01/22 01:05:07;;;;;;;2.30;0.80;;;27.70;99.90;;;;;;4977081;28;20215;-65
2022/01/22 01:07:35;;;;;;;4.00;0.80;;;27.30;99.90;;;;;;4977166;28;20254;-64
2022/01/22 01:10:03;;;;;;;6.30;0.80;;;26.50;99.90;;;;;;4977365;28;20633;-65
2022/01/22 01:12:30;;;;;;;3.30;0.73;;;26.10;99.90;;;;;;4977387;28;20700;-66
2022/01/22 01:34:15;;;;;;;2.17;0.70;;;27.50;99.90;;;;;;4976902;28;20191;-66
2022/01/22 01:36:43;;;;;;;4.33;0.63;;;28.20;99.90;;;;;;4976645;28;20266;-66
2022/01/22 01:39:19;;;;;;;4.40;0.90;;;28.20;99.90;;;;;;4976628;28;20245;-66
2022/01/22 01:44:20;;;;;;;4.90;0.90;;;28.70;99.90;;;;;;4976742;28;20191;-66
2022/01/22 01:46:56;;;;;;;3.70;0.80;;;28.60;99.90;;;;;;4976505;28;20250;-66
2022/01/22 01:49:24;;;;;;;3.20;0.80;;;28.50;99.90;;;;;;4976591;28;20186;-66
2022/01/22 01:51:54;;;;;;;4.50;0.90;;;28.60;99.90;;;;;;4977074;28;20197;-66
2022/01/22 01:54:47;;;;;;;3.07;0.70;;;28.70;99.90;;;;;;4976438;28;20230;-66
2022/01/22 01:59:53;;;;;;;3.63;0.70;;;29.30;99.90;;;;;;4976449;28;20183;-66
2022/01/22 02:02:23;;;;;;;2.13;0.60;;;29.10;99.90;;;;;;4976105;28;20278;-66
2022/01/22 02:04:50;;;;;;;6.53;1.00;;;28.50;99.90;;;;;;4976259;28;20254;-66
2022/01/22 02:07:18;;;;;;;4.10;0.83;;;28.10;99.90;;;;;;4976587;28;20219;-66
2022/01/22 02:09:45;;;;;;;2.93;0.90;;;27.90;99.90;;;;;;4975905;28;20238;-66
2022/01/22 02:12:33;;;;;;;3.07;0.70;;;26.80;99.90;;;;;;4975889;28;20238;-66
2022/01/22 02:23:38;;;;;;;8.63;0.93;;;28.10;99.90;;;;;;4975752;28;20270;-65
2022/01/22 02:26:08;;;;;;;4.77;0.70;;;28.70;99.90;;;;;;4975557;28;20219;-65
2022/01/22 02:28:36;;;;;;;3.40;0.70;;;29.10;99.90;;;;;;4975657;28;20179;-65
2022/01/22 02:33:51;;;;;;;5.10;0.70;;;29.90;99.90;;;;;;4975612;28;20184;-65
2022/01/22 02:36:32;;;;;;;8.23;1.23;;;30.00;99.90;;;;;;4975730;28;20191;-66
2022/01/22 02:39:08;;;;;;;3.77;0.90;;;30.30;99.90;;;;;;4975426;28;20167;-65
2022/01/22 02:41:41;;;;;;;6.57;0.87;;;30.30;99.90;;;;;;4975330;28;20186;-65
2022/01/22 02:44:14;;;;;;;3.63;0.70;;;29.90;99.90;;;;;;4974727;28;20219;-65
2022/01/22 02:46:43;;;;;;;2.70;0.80;;;29.20;99.90;;;;;;4975508;28;20720;-65
2022/01/22 02:49:10;;;;;;;4.23;0.60;;;29.70;99.90;;;;;;4975204;28;20225;-65
2022/01/22 02:51:38;;;;;;;3.27;0.73;;;30.10;99.90;;;;;;4975265;28;20222;-65
2022/01/22 02:54:06;;;;;;;1.77;0.73;;;29.10;99.90;;;;;;4975134;28;20712;-65
2022/01/22 02:56:33;;;;;;;4.03;0.60;;;28.00;99.90;;;;;;4975249;28;20181;-65
2022/01/22 02:59:01;;;;;;;6.20;1.10;;;27.60;99.90;;;;;;4975065;28;20226;-65
2022/01/22 03:01:28;;;;;;;3.83;0.77;;;27.20;99.90;;;;;;4975012;28;20191;-65
2022/01/22 03:03:56;;;;;;;3.67;0.70;;;28.10;99.90;;;;;;4974980;28;20187;-66
2022/01/22 03:06:23;;;;;;;3.60;1.10;;;29.20;99.90;;;;;;4974960;28;20223;-66
2022/01/22 03:08:51;;;;;;;3.60;0.77;;;29.70;99.90;;;;;;4975057;28;20175;-66
2022/01/22 03:11:29;;;;;;;3.40;0.70;;;29.10;99.90;;;;;;4975098;28;20661;-66
2022/01/22 03:16:53;;;;;;;3.77;0.70;;;28.50;99.90;;;;;;4974755;28;20176;-66
2022/01/22 03:19:33;;;;;;;3.57;1.10;;;28.80;99.90;;;;;;4974493;28;20525;-66
2022/01/22 03:22:14;;;;;;;4.43;0.70;;;28.10;99.90;;;;;;4974835;28;20667;-66
2022/01/22 03:27:29;;;;;;;4.77;0.87;;;28.50;99.90;;;;;;4974734;28;20217;-66
2022/01/22 03:29:56;;;;;;;3.57;1.10;;;28.60;99.90;;;;;;4974616;28;20179;-66
2022/01/22 03:32:28;;;;;;;4.87;1.10;;;27.60;99.90;;;;;;4974592;28;20179;-66
2022/01/22 03:35:10;;;;;;;5.80;0.87;;;27.20;99.90;;;;;;4974458;28;20235;-66
2022/01/22 03:37:39;;;;;;;6.63;0.90;;;27.10;99.90;;;;;;4974539;28;20277;-65
2022/01/22 03:40:08;;;;;;;3.73;0.90;;;26.90;99.90;;;;;;4974477;28;20211;-66
2022/01/22 03:42:36;;;;;;;1.73;0.60;;;27.00;99.90;;;;;;4974268;28;20609;-66
2022/01/22 03:45:05;;;;;;;2.77;0.70;;;26.90;99.90;;;;;;4974458;28;20330;-65
2022/01/22 03:47:32;;;;;;;3.97;0.60;;;27.00;99.90;;;;;;4974574;28;20219;-65
2022/01/22 03:49:59;;;;;;;4.03;0.73;;;27.20;99.90;;;;;;4974394;28;20183;-65
2022/01/22 03:52:27;;;;;;;4.53;0.80;;;27.10;99.90;;;;;;4974572;28;20175;-66
2022/01/22 03:54:54;;;;;;;6.27;0.70;;;26.90;99.90;;;;;;4973944;28;20191;-67
2022/01/22 03:57:23;;;;;;;5.87;0.80;;;26.70;99.90;;;;;;4974633;28;20677;-65
2022/01/22 03:59:53;;;;;;;3.90;0.90;;;26.90;99.90;;;;;;4974573;28;20187;-66
2022/01/22 04:04:59;;;;;;;2.33;0.87;;;28.40;99.90;;;;;;4974483;28;20186;-66
2022/01/22 04:10:14;;;;;;;3.23;0.90;;;27.80;99.90;;;;;;4974773;28;20554;-66
2022/01/22 04:15:44;;;;;;;4.63;0.87;;;28.50;99.90;;;;;;4933903;29;20596;-66
2022/01/22 04:28:56;;;;;;;6.37;0.67;;;29.10;99.90;;;;;;4974305;28;20180;-66
2022/01/22 04:31:24;;;;;;;5.47;1.03;;;29.70;99.90;;;;;;4974011;28;20175;-66
2022/01/22 04:33:51;;;;;;;3.00;0.80;;;30.10;99.90;;;;;;4973973;28;20210;-66
2022/01/22 04:36:19;;;;;;;2.87;0.70;;;29.90;99.90;;;;;;4974133;28;20598;-66
2022/01/22 04:38:46;;;;;;;3.53;0.80;;;29.40;99.90;;;;;;4973961;28;20629;-66
2022/01/22 04:41:14;;;;;;;2.23;0.77;;;29.50;99.90;;;;;;4972632;28;20692;-66
2022/01/22 04:43:43;;;;;;;2.67;0.57;;;29.50;99.90;;;;;;4973745;28;20642;-66
2022/01/22 04:56:43;;;;;;;2.27;0.63;;;27.80;99.90;;;;;;4974314;28;20182;-66
2022/01/22 04:59:11;;;;;;;4.80;0.70;;;28.60;99.90;;;;;;4974316;28;20272;-66
2022/01/22 05:01:40;;;;;;;5.40;0.60;;;28.30;99.90;;;;;;4972459;28;20183;-66
2022/01/22 05:04:07;;;;;;;4.70;0.90;;;28.60;99.90;;;;;;4973753;28;20243;-65
2022/01/22 05:06:35;;;;;;;3.13;0.90;;;28.80;99.90;;;;;;4974854;28;20609;-65
2022/01/22 05:09:02;;;;;;;3.17;0.70;;;29.20;99.90;;;;;;4977365;28;20629;-65
2022/01/22 05:11:30;;;;;;;4.67;0.87;;;29.50;99.90;;;;;;4977201;28;20226;-65
2022/01/22 05:13:59;;;;;;;5.27;1.03;;;29.00;99.90;;;;;;4977243;28;20226;-66
2022/01/22 05:16:26;;;;;;;5.13;0.93;;;29.40;99.90;;;;;;4977328;28;20175;-66
2022/01/22 05:19:17;;;;;;;3.90;0.70;;;29.30;99.90;;;;;;4977174;28;20188;-65
2022/01/22 05:21:44;;;;;;;5.60;1.17;;;29.20;99.90;;;;;;4976105;28;20278;-69
2022/01/22 05:24:17;;;;;;;3.43;0.77;;;28.00;99.90;;;;;;4975000;28;20645;-67
2022/01/22 05:27:36;;;;;;;5.43;0.87;;;27.90;99.90;;;;;;4970251;28;20219;-67
2022/01/22 05:37:17;;;;;;;2.13;0.70;;;27.60;99.90;;;;;;4974715;28;20234;-68
2022/01/22 05:39:44;;;;;;;5.83;1.00;;;27.50;99.90;;;;;;4973260;28;20198;-68
2022/01/22 05:42:11;;;;;;;5.07;1.23;;;27.40;99.90;;;;;;4974892;28;20700;-67
2022/01/22 05:44:39;;;;;;;4.43;0.63;;;27.80;99.90;;;;;;4974463;28;20187;-67
2022/01/22 05:47:07;;;;;;;5.73;0.80;;;27.80;99.90;;;;;;4977146;28;20268;-68
2022/01/22 05:49:39;;;;;;;4.63;1.00;;;28.00;99.90;;;;;;4994416;28;20245;-67
2022/01/22 05:52:09;;;;;;;2.43;0.53;;;28.30;99.90;;;;;;4983704;28;20195;-67
2022/01/22 06:00:10;;;;;;;3.67;0.97;;;28.60;99.90;;;;;;4974824;28;20183;-67
2022/01/22 06:02:37;;;;;;;3.63;1.17;;;28.90;99.90;;;;;;4978284;28;20267;-66
2022/01/22 06:05:05;;;;;;;3.80;1.30;;;29.10;99.90;;;;;;4974634;28;20266;-67
2022/01/22 06:07:32;;;;;;;2.77;1.13;;;29.30;99.90;;;;;;4982546;28;20225;-68
2022/01/22 06:15:13;;;;;;;3.03;1.00;;;28.10;99.90;;;;;;4977706;28;20334;-68
2022/01/22 06:17:41;;;;;;;4.07;0.80;;;28.40;99.90;;;;;;4973904;28;20183;-67
2022/01/22 06:20:12;;;;;;;4.17;0.90;;;29.30;99.90;;;;;;4972813;28;20195;-68
2022/01/22 06:22:42;;;;;;;3.80;1.00;;;29.20;99.90;;;;;;4973433;28;20547;-67
2022/01/22 06:25:10;;;;;;;4.23;0.90;;;29.10;99.90;;;;;;4979048;28;20572;-66
2022/01/22 06:27:37;;;;;;;5.67;0.83;;;29.00;99.90;;;;;;4993292;28;20689;-67
2022/01/22 06:30:05;;;;;;;4.60;0.90;;;28.60;99.90;;;;;;4981261;28;20254;-67
2022/01/22 06:32:32;;;;;;;3.77;0.80;;;28.70;99.90;;;;;;4973992;28;20207;-67
2022/01/22 06:35:00;;;;;;;3.30;0.60;;;28.50;99.90;;;;;;4972336;28;20190;-68
2022/01/22 06:37:27;;;;;;;2.40;0.83;;;28.00;99.90;;;;;;4973837;28;20643;-66
2022/01/22 06:42:35;;;;;;;5.27;1.20;;;28.00;99.90;;;;;;4973691;28;20219;-67
2022/01/22 06:45:04;;;;;;;5.93;0.93;;;28.30;99.90;;;;;;4973636;28;20968;-68
2022/01/22 06:47:32;;;;;;;3.60;0.90;;;28.30;99.90;;;;;;4973875;28;20215;-67
2022/01/22 06:50:00;;;;;;;4.57;1.00;;;28.10;99.90;;;;;;4973035;28;20183;-67
2022/01/22 06:52:29;;;;;;;3.57;1.00;;;27.80;99.90;;;;;;4973685;28;20195;-68
2022/01/22 06:54:57;;;;;;;4.70;1.07;;;27.50;99.90;;;;;;4972882;28;20175;-66
2022/01/22 06:57:24;;;;;;;4.47;1.00;;;27.50;99.90;;;;;;4972420;28;20198;-68
2022/01/22 06:59:52;;;;;;;3.67;0.83;;;27.80;99.90;;;;;;4972485;28;20187;-67
2022/01/22 07:02:20;;;;;;;5.67;1.47;;;27.70;99.90;;;;;;4973251;28;20606;-67
2022/01/22 07:04:48;;;;;;;6.10;0.93;;;27.60;99.90;;;;;;4973106;28;20195;-67
2022/01/22 07:07:15;;;;;;;3.70;0.70;;;27.10;99.90;;;;;;4981846;28;20211;-67
2022/01/22 07:09:44;;;;;;;6.30;0.90;;;27.30;99.90;;;;;;4972218;28;20183;-67
2022/01/22 07:12:12;;;;;;;3.87;1.20;;;27.20;99.90;;;;;;4973625;28;20988;-66
2022/01/22 07:14:41;;;;;;;9.23;1.13;;;27.20;99.90;;;;;;4973181;28;20238;-67
2022/01/22 07:17:09;;;;;;;3.33;0.97;;;27.30;99.90;;;;;;4973628;28;20270;-68
2022/01/22 07:19:40;;;;;;;6.30;1.07;;;26.80;99.90;;;;;;4973683;28;20222;-66
2022/01/22 07:22:33;;;;;;;5.37;1.03;;;26.50;99.90;;;;;;4973470;28;20191;-67
2022/01/22 07:24:54;;;;;;;3.07;0.70;;;26.10;99.90;;;;;;4973708;28;20274;-68
2022/01/22 07:27:22;;;;;;;3.03;0.97;;;26.40;99.90;;;;;;4972140;28;20226;-67
2022/01/22 07:29:49;;;;;;;3.73;0.97;;;26.50;99.90;;;;;;4973077;28;20596;-67
2022/01/22 07:32:27;;;;;;;6.30;1.20;;;26.60;99.90;;;;;;4973393;28;20234;-66
2022/01/22 07:34:54;;;;;;;7.50;1.40;;;26.60;99.90;;;;;;4973588;28;20183;-65
2022/01/22 07:37:23;;;;;;;3.43;1.00;;;26.50;99.90;;;;;;4973317;28;20179;-65
2022/01/22 07:39:50;;;;;;;5.53;1.20;;;26.50;99.90;;;;;;4973299;28;20242;-67
2022/01/22 07:42:18;;;;;;;6.43;1.10;;;26.40;99.90;;;;;;4973007;28;20231;-67
2022/01/22 07:44:46;;;;;;;3.80;1.00;;;26.40;99.90;;;;;;4972636;28;20191;-66
2022/01/22 07:47:14;;;;;;;4.70;0.90;;;26.40;99.90;;;;;;4973075;28;20250;-66
2022/01/22 07:49:41;;;;;;;3.30;1.07;;;26.50;99.90;;;;;;4973155;28;20552;-66
2022/01/22 07:52:09;;;;;;;4.83;0.90;;;26.40;99.90;;;;;;4973139;28;20183;-68
2022/01/22 07:54:36;;;;;;;5.03;1.00;;;26.50;99.90;;;;;;4972936;28;20214;-67
2022/01/22 07:57:04;;;;;;;6.17;1.10;;;26.20;99.90;;;;;;4972791;28;20183;-67
2022/01/22 07:59:35;;;;;;;8.70;1.10;;;25.80;99.90;;;;;;4972838;28;20191;-67
2022/01/22 08:02:03;;;;;;;7.73;1.20;;;25.70;99.90;;;;;;4972789;28;20637;-67
2022/01/22 08:04:31;;;;;;;2.97;0.90;;;25.60;99.90;;;;;;4972724;28;20721;-67
2022/01/22 08:07:01;;;;;;;5.27;1.43;;;25.60;99.90;;;;;;4971559;28;20254;-66
2022/01/22 08:09:28;;;;;;;9.77;1.20;;;25.70;99.90;;;;;;4971595;28;20183;-67
2022/01/22 08:11:56;;;;;;;4.80;1.20;;;25.70;99.90;;;;;;4972443;28;20191;-67
2022/01/22 08:14:23;;;;;;;6.00;1.30;;;25.70;99.90;;;;;;4972549;28;20655;-67
2022/01/22 08:16:51;;;;;;;7.00;1.17;;;25.50;99.90;;;;;;4972892;28;20197;-67
2022/01/22 08:19:19;;;;;;;6.90;1.27;;;25.40;99.90;;;;;;4972625;28;20195;-68
2022/01/22 08:21:47;;;;;;;5.80;1.10;;;25.20;99.90;;;;;;4972611;28;20193;-67
2022/01/22 08:24:17;;;;;;;5.63;1.20;;;25.40;99.90;;;;;;4971166;28;20191;-67
2022/01/22 08:26:46;;;;;;;3.77;1.30;;;25.20;99.90;;;;;;4972803;28;20298;-67
2022/01/22 08:29:13;;;;;;;6.60;1.30;;;24.90;99.90;;;;;;4971687;28;20225;-67
2022/01/22 08:36:57;;;;;;;7.33;1.20;;;24.20;99.90;;;;;;4972849;28;20203;-67
2022/01/22 08:39:25;;;;;;;5.97;1.47;;;23.90;99.90;;;;;;4972556;28;20180;-67
2022/01/22 08:41:53;;;;;;;6.27;1.30;;;24.10;99.90;;;;;;4973596;28;20233;-67
2022/01/22 08:44:21;;;;;;;7.20;1.10;;;24.00;99.90;;;;;;4976182;28;20195;-67
2022/01/22 08:46:48;;;;;;;4.53;1.40;;;23.80;99.90;;;;;;4976098;28;20688;-67
2022/01/22 08:49:15;;;;;;;9.97;2.13;;;23.60;99.90;;;;;;4975849;28;20237;-68
2022/01/22 08:51:43;;;;;;;5.83;1.13;;;23.50;99.90;;;;;;4977075;28;20195;-66
2022/01/22 08:54:11;;;;;;;25.63;3.67;;;23.40;99.90;;;;;;4976576;28;20189;-67
2022/01/22 08:56:40;;;;;;;6.87;1.50;;;23.20;99.90;;;;;;4977062;28;20198;-67
2022/01/22 08:59:12;;;;;;;12.27;1.83;;;23.10;99.90;;;;;;4977553;28;20759;-69
2022/01/22 09:01:42;;;;;;;11.10;1.57;;;23.00;99.90;;;;;;4977562;28;20181;-67
2022/01/22 09:04:10;;;;;;;16.67;2.20;;;22.90;99.90;;;;;;4977279;28;20245;-67
2022/01/22 09:06:37;;;;;;;9.87;1.43;;;22.90;99.90;;;;;;4977357;28;20313;-67
2022/01/22 09:09:10;;;;;;;10.50;1.90;;;22.80;99.90;;;;;;4977352;28;20223;-67
2022/01/22 09:11:41;;;;;;;5.20;1.27;;;22.70;99.90;;;;;;4977631;28;20188;-66
2022/01/22 09:14:11;;;;;;;8.70;1.27;;;22.60;99.90;;;;;;4977612;28;20187;-66
2022/01/22 09:16:39;;;;;;;9.33;2.00;;;22.70;99.90;;;;;;4977152;28;20190;-66
2022/01/22 09:19:10;;;;;;;10.67;1.50;;;22.70;99.90;;;;;;4977888;28;20194;-66
2022/01/22 09:21:41;;;;;;;7.43;1.70;;;22.60;99.90;;;;;;4977396;28;20186;-66
2022/01/22 09:24:10;;;;;;;8.53;1.30;;;22.50;99.90;;;;;;4976820;28;20187;-66
2022/01/22 09:26:38;;;;;;;7.53;1.53;;;22.50;99.90;;;;;;4977053;28;20235;-68
2022/01/22 09:29:05;;;;;;;7.73;1.73;;;22.50;99.90;;;;;;4977136;28;20186;-67
2022/01/22 09:31:34;;;;;;;7.53;1.43;;;22.50;99.90;;;;;;4977054;28;20183;-66
2022/01/22 09:34:02;;;;;;;6.87;1.50;;;22.50;99.90;;;;;;4977031;28;20182;-66
2022/01/22 09:36:31;;;;;;;7.70;1.40;;;22.40;99.90;;;;;;4977092;28;20179;-66
2022/01/22 09:38:59;;;;;;;7.67;1.93;;;22.40;99.90;;;;;;4976444;28;20544;-66
2022/01/22 09:41:28;;;;;;;7.90;1.30;;;22.30;99.90;;;;;;4976482;28;20192;-67
2022/01/22 09:43:57;;;;;;;7.60;1.70;;;22.20;99.90;;;;;;4975846;28;20600;-67
2022/01/22 09:46:27;;;;;;;9.20;1.63;;;22.20;99.90;;;;;;4976762;28;20300;-67
2022/01/22 09:48:56;;;;;;;8.67;1.73;;;22.20;99.90;;;;;;4976913;28;20639;-66
2022/01/22 09:51:24;;;;;;;12.20;2.00;;;22.20;99.90;;;;;;4975063;28;20179;-67
2022/01/22 09:53:52;;;;;;;8.00;2.00;;;22.10;99.90;;;;;;4976116;28;20187;-67
2022/01/22 09:56:22;;;;;;;10.20;1.90;;;22.10;99.90;;;;;;4976463;28;20172;-66
2022/01/22 09:58:51;;;;;;;10.10;1.63;;;22.00;99.90;;;;;;4976424;28;20225;-67
2022/01/22 10:01:35;;;;;;;10.43;2.57;;;22.10;99.90;;;;;;4976496;28;20688;-67
2022/01/22 10:04:06;;;;;;;7.57;2.00;;;22.10;99.90;;;;;;4975870;28;20589;-67
2022/01/22 10:06:46;;;;;;;7.23;1.30;;;22.10;99.90;;;;;;4976239;28;20217;-67
2022/01/22 10:09:25;;;;;;;5.37;1.47;;;22.10;99.90;;;;;;4976568;28;20179;-66
2022/01/22 10:12:11;;;;;;;12.50;1.70;;;22.10;99.90;;;;;;4976012;28;20214;-67
2022/01/22 10:15:09;;;;;;;7.43;1.70;;;22.10;99.90;;;;;;4975890;28;20261;-66
2022/01/22 10:17:44;;;;;;;11.80;1.70;;;22.00;99.90;;;;;;4972428;28;20648;-66
2022/01/22 10:20:24;;;;;;;5.70;1.40;;;22.10;99.90;;;;;;4957022;28;20270;-66
2022/01/22 10:22:54;;;;;;;5.93;1.60;;;22.10;99.90;;;;;;4959581;28;20180;-66
2022/01/22 10:25:32;;;;;;;7.43;2.07;;;22.00;99.90;;;;;;4975961;28;20183;-66
2022/01/22 10:28:03;;;;;;;7.20;1.87;;;22.00;99.90;;;;;;4974747;28;20651;-67
2022/01/22 10:30:37;;;;;;;5.73;1.27;;;22.00;99.90;;;;;;4975998;28;20178;-66
2022/01/22 10:33:28;;;;;;;7.17;1.43;;;22.00;99.90;;;;;;4975788;28;20190;-66
2022/01/22 10:36:17;;;;;;;8.90;1.40;;;22.00;99.90;;;;;;4975766;28;20191;-66
2022/01/22 10:38:50;;;;;;;8.30;1.80;;;21.90;99.90;;;;;;4975726;28;20183;-67
2022/01/22 10:41:31;;;;;;;5.50;1.83;;;21.80;99.90;;;;;;4975503;28;20234;-66
2022/01/22 10:44:00;;;;;;;6.47;1.63;;;21.70;99.90;;;;;;4975116;28;20267;-67
2022/01/22 10:48:59;;;;;;;7.57;1.97;;;21.60;99.90;;;;;;4975570;28;20171;-65
2022/01/22 10:51:29;;;;;;;7.37;1.80;;;21.60;99.90;;;;;;4975581;28;20179;-65
2022/01/22 10:54:02;;;;;;;8.83;1.60;;;21.50;99.90;;;;;;4974920;28;20215;-65
2022/01/22 10:56:33;;;;;;;7.07;1.10;;;21.40;99.90;;;;;;4975509;28;20172;-65
2022/01/22 10:59:03;;;;;;;7.57;1.70;;;21.40;99.90;;;;;;4975358;28;20534;-65
2022/01/22 11:01:45;;;;;;;5.27;1.20;;;21.40;99.90;;;;;;4975475;28;20194;-65
2022/01/22 11:04:15;;;;;;;4.30;1.43;;;21.40;99.90;;;;;;4974616;28;20179;-65
2022/01/22 11:06:54;;;;;;;14.23;2.63;;;21.40;99.90;;;;;;4973928;28;20221;-66
2022/01/22 11:09:23;;;;;;;8.73;1.93;;;21.40;99.90;;;;;;4974986;28;20179;-65
2022/01/22 11:11:52;;;;;;;8.70;1.63;;;21.40;99.90;;;;;;4975217;28;20189;-66
2022/01/22 11:14:20;;;;;;;13.03;2.20;;;21.50;99.90;;;;;;4974892;28;20267;-66
2022/01/22 11:16:50;;;;;;;8.80;1.60;;;21.40;99.90;;;;;;4975233;28;20656;-66
2022/01/22 11:19:21;;;;;;;7.57;1.97;;;21.40;99.90;;;;;;4974997;28;20603;-65
2022/01/22 11:21:52;;;;;;;8.20;1.80;;;21.50;99.90;;;;;;4974716;28;20222;-65
2022/01/22 11:24:23;;;;;;;5.87;1.90;;;21.50;99.90;;;;;;4974662;28;20192;-66
2022/01/22 11:26:53;;;;;;;7.90;1.80;;;21.50;99.90;;;;;;4975243;28;20619;-66
2022/01/22 11:29:25;;;;;;;10.33;1.90;;;21.50;99.90;;;;;;4974752;28;20607;-65
2022/01/22 11:31:54;;;;;;;5.23;1.57;;;21.40;99.90;;;;;;4975042;28;20532;-65
2022/01/22 11:34:25;;;;;;;5.97;1.20;;;21.40;99.90;;;;;;4974497;28;20210;-66
2022/01/22 11:37:14;;;;;;;8.60;1.53;;;21.30;99.90;;;;;;4974654;28;20226;-66
2022/01/22 11:39:41;;;;;;;5.63;1.23;;;21.20;99.90;;;;;;4974871;28;20172;-65
2022/01/22 11:42:09;;;;;;;8.93;1.70;;;21.20;99.90;;;;;;4974652;28;20223;-66
2022/01/22 11:44:50;;;;;;;8.00;1.40;;;21.00;99.90;;;;;;4974278;28;20195;-66
2022/01/22 11:47:22;;;;;;;10.17;1.50;;;21.00;99.90;;;;;;4974653;28;20278;-66
2022/01/22 11:50:08;;;;;;;8.43;2.03;;;21.00;99.90;;;;;;4974766;28;20191;-66
2022/01/22 11:52:40;;;;;;;4.33;1.23;;;21.00;99.90;;;;;;4974244;28;20192;-66
2022/01/22 11:55:11;;;;;;;5.03;1.47;;;21.00;99.90;;;;;;4974424;28;20186;-66
2022/01/22 11:57:40;;;;;;;6.63;1.60;;;21.00;99.90;;;;;;4974543;28;20278;-66
2022/01/22 12:00:29;;;;;;;9.33;1.70;;;21.00;99.90;;;;;;4974591;28;20175;-66
2022/01/22 12:03:08;;;;;;;5.03;1.53;;;21.00;99.90;;;;;;4974114;28;20192;-66
2022/01/22 12:05:58;;;;;;;5.67;1.50;;;21.00;99.90;;;;;;4974375;28;20181;-65
2022/01/22 12:08:26;;;;;;;8.77;1.70;;;21.00;99.90;;;;;;4967852;28;20285;-66
2022/01/22 12:16:37;;;;;;;5.10;1.60;;;21.10;99.90;;;;;;4974139;28;20184;-66
2022/01/22 12:19:09;;;;;;;8.63;1.47;;;21.10;99.90;;;;;;4988085;28;20182;-66
2022/01/22 12:21:38;;;;;;;11.47;1.97;;;21.10;99.90;;;;;;4986584;28;20646;-66
2022/01/22 12:24:12;;;;;;;7.67;1.50;;;21.10;99.90;;;;;;4982483;28;20211;-66
2022/01/22 12:26:50;;;;;;;8.73;1.80;;;21.10;99.90;;;;;;4977687;28;20336;-66
2022/01/22 12:29:32;;;;;;;8.90;1.73;;;21.10;99.90;;;;;;4976557;28;20216;-66
2022/01/22 12:32:10;;;;;;;9.83;1.70;;;21.10;99.90;;;;;;4965286;28;20179;-66
2022/01/22 12:35:06;;;;;;;4.90;1.33;;;21.10;99.90;;;;;;4977691;28;20187;-66
2022/01/22 12:37:39;;;;;;;7.80;2.20;;;21.10;99.90;;;;;;4978140;28;20242;-66
2022/01/22 12:40:07;;;;;;;8.10;1.40;;;21.10;99.90;;;;;;4977966;28;20183;-66
2022/01/22 12:42:54;;;;;;;7.83;1.47;;;21.10;99.90;;;;;;4977652;28;20720;-66
2022/01/22 12:45:24;;;;;;;8.93;1.77;;;21.20;99.90;;;;;;4977518;28;20208;-66
2022/01/22 12:47:54;;;;;;;8.97;1.80;;;21.30;99.90;;;;;;4977829;28;20590;-66
2022/01/22 12:50:30;;;;;;;6.80;1.50;;;21.20;99.90;;;;;;4978020;28;20171;-66
2022/01/22 12:53:04;;;;;;;5.00;1.53;;;21.20;99.90;;;;;;4977675;28;20210;-66
2022/01/22 12:56:00;;;;;;;7.40;1.53;;;21.20;99.90;;;;;;4975683;28;20194;-66
2022/01/22 12:58:28;;;;;;;8.47;1.77;;;21.20;99.90;;;;;;4977615;28;20636;-65
2022/01/22 13:01:11;;;;;;;9.07;1.60;;;21.20;99.90;;;;;;4977328;28;20198;-66
2022/01/22 13:03:42;;;;;;;4.53;1.67;;;21.30;99.90;;;;;;4977491;28;20233;-67
2022/01/22 13:06:10;;;;;;;9.83;1.83;;;21.20;99.90;;;;;;4977421;28;20221;-66
2022/01/22 13:08:37;;;;;;;3.77;1.47;;;21.20;99.90;;;;;;4976138;28;20603;-67
2022/01/22 13:11:09;;;;;;;8.67;1.57;;;21.20;99.90;;;;;;4975988;28;20193;-67
2022/01/22 13:13:40;;;;;;;7.07;1.47;;;21.20;99.90;;;;;;4976990;28;20548;-67
2022/01/22 13:16:16;;;;;;;6.40;1.63;;;21.30;99.90;;;;;;4977531;28;20239;-66
2022/01/22 13:18:47;;;;;;;10.17;2.20;;;21.30;99.90;;;;;;4977516;28;20196;-68
2022/01/22 13:21:16;;;;;;;4.13;1.13;;;21.20;99.90;;;;;;4977373;28;20213;-66
2022/01/22 13:23:46;;;;;;;11.47;1.67;;;21.20;99.90;;;;;;4976953;28;20242;-68
2022/01/22 13:26:14;;;;;;;6.07;1.30;;;21.20;99.90;;;;;;4976217;28;20207;-66
2022/01/22 13:28:43;;;;;;;8.43;1.60;;;21.20;99.90;;;;;;4976561;28;20191;-66
2022/01/22 13:31:17;;;;;;;4.33;1.43;;;21.20;99.90;;;;;;4977201;28;20205;-66
2022/01/22 13:36:27;;;;;;;7.60;2.27;;;21.10;99.90;;;;;;4977060;28;20187;-67
2022/01/22 13:49:52;;;;;;;6.40;1.40;;;20.70;99.90;;;;;;4977142;28;20182;-67
2022/01/22 13:52:21;;;;;;;6.17;1.30;;;20.60;99.90;;;;;;4976657;28;20187;-68
2022/01/22 13:54:52;;;;;;;10.53;2.40;;;20.50;99.90;;;;;;4976298;28;20200;-66
2022/01/22 13:57:22;;;;;;;7.93;1.53;;;20.50;99.90;;;;;;4976213;28;20185;-67
2022/01/22 13:59:55;;;;;;;7.73;1.60;;;20.40;99.90;;;;;;4976572;28;20207;-67
2022/01/22 14:05:00;;;;;;;6.00;1.27;;;20.20;99.90;;;;;;4976043;28;20737;-66
2022/01/22 14:07:34;;;;;;;6.43;1.87;;;20.10;99.90;;;;;;4976548;28;20697;-67
2022/01/22 14:10:13;;;;;;;7.63;1.57;;;20.00;99.90;;;;;;4976385;28;20578;-67
2022/01/22 14:12:47;;;;;;;6.40;1.50;;;19.90;99.90;;;;;;4975017;28;20189;-67
2022/01/22 14:15:28;;;;;;;7.07;1.43;;;19.80;99.90;;;;;;4956970;28;20210;-68
2022/01/22 14:18:10;;;;;;;7.47;1.80;;;19.70;99.90;;;;;;4957202;28;20257;-67
2022/01/22 14:20:43;;;;;;;11.50;1.97;;;19.70;99.90;;;;;;4964741;28;20196;-67
2022/01/22 14:23:10;;;;;;;6.20;2.00;;;19.60;99.90;;;;;;4975484;28;20190;-67
2022/01/22 14:26:10;;;;;;;10.60;1.60;;;19.60;99.90;;;;;;4975927;28;20577;-68
2022/01/22 14:28:56;;;;;;;5.27;1.40;;;19.60;99.90;;;;;;4964107;28;20246;-66
2022/01/22 14:31:31;;;;;;;6.30;1.70;;;19.70;99.90;;;;;;4975907;28;20656;-66
2022/01/22 14:34:10;;;;;;;5.50;1.47;;;19.80;99.90;;;;;;4976129;28;20661;-67
2022/01/22 14:36:42;;;;;;;7.27;1.97;;;19.90;99.90;;;;;;4975923;28;20175;-67
2022/01/22 14:44:45;;;;;;;10.40;2.00;;;20.20;99.90;;;;;;4975512;28;20599;-66
2022/01/22 14:47:17;;;;;;;8.37;2.07;;;20.20;99.90;;;;;;4975666;28;20202;-68
2022/01/22 14:49:50;;;;;;;5.43;1.70;;;20.20;99.90;;;;;;4976284;28;20172;-68
2022/01/22 14:52:39;;;;;;;5.67;1.50;;;20.20;99.90;;;;;;4975071;28;20234;-67
2022/01/22 14:55:11;;;;;;;4.60;2.23;;;20.20;99.90;;;;;;4974527;28;20672;-67
2022/01/22 14:57:41;;;;;;;7.97;1.67;;;20.10;99.90;;;;;;4975793;28;20266;-68
2022/01/22 15:00:15;;;;;;;7.50;1.80;;;20.10;99.90;;;;;;4975216;28;20210;-68
2022/01/22 15:02:44;;;;;;;5.63;1.40;;;20.10;99.90;;;;;;4974052;28;20186;-68
2022/01/22 15:05:14;;;;;;;6.23;1.77;;;20.20;99.90;;;;;;4975198;28;20701;-69
2022/01/22 15:07:43;;;;;;;3.93;1.40;;;20.20;99.90;;;;;;4975198;28;20219;-69
2022/01/22 15:10:12;;;;;;;5.10;1.73;;;20.20;99.90;;;;;;4975198;28;20172;-68
2022/01/22 15:12:40;;;;;;;8.53;1.30;;;20.30;99.90;;;;;;4975336;28;20526;-68
2022/01/22 15:15:08;;;;;;;5.87;1.43;;;20.30;99.90;;;;;;4974836;28;20240;-68